Airfield :
LOGIN :

Register | Disclaimer

   EN    FR    IT 

 










Legend :    VFR   Marginal VFR   IFR   Intensive IFR   Very Intensive IFR
Visi :
Ceiling :
>= 8 km
>= 3000ft
5 to 8 km
1000 to 3000 ft
1500m to 5 km
500 to 1000 ft
800 to 1500m
200 to 500 ft
< 800m
< 200 ft
Symbols :   Thunderstorms  Fog  Heavy snow  Heavy precipitations  Wind > 20 kt
SIGMETs :     Misc.  Thunderstorms  Icing  Turbulence  Mountain Waves  Volcanic Ashes






- Airport Elevation : 285 ft
- IATA code : GOZ


LBGO - Gorna Oryahovitsa

CURRENT METAR :
  • 060400Z AUTO 10004KT 9999 NCD 03/03 Q1029 TEMPO 3000 BR

EXPIRED METARs :
  • 060330Z AUTO 10005KT 9999 NCD 04/04 Q1028 TEMPO 0800 BCFG
  • 060300Z AUTO 11004KT 9999 FEW003/// 04/04 Q1028 TEMPO 0800 BCFG
  • 060230Z AUTO 11004KT 6000 0900W R27/P2000N BCFG FEW004/// 03/03 Q1029
  • 060200Z AUTO 00000KT 1900 1200W R27/P2000N BR SCT004/// 04/04 Q1029
  • 060130Z AUTO 11002KT 3200 BR SCT003/// 03/03 Q1029

TAF TAF LBGO
Valid from the 06 at 00:00 until the 07 at 00:00 UTC


052300Z 0600/0624 VRB04KT 3000 BR SCT015
BECMG 0600/0602 0800 BCFG SCT005 BKN010
TEMPO 0602/0606 0300 FG BKN002 OVC004
BECMG 0606/0608 3000 BR SCT015
BECMG 0608/0609 7000 NSC



MET'MAP, your aeronautical weather chart ! - Copyright ORBIFLY December 2007 - Disclaimer

ORBIFLY MET'MAP TEAM :

Programming & Development : Alexandra Zaïnal
Original concept : Baudouin d'Aumeries
Technical & hardware support : Manuel Goepfert
Assistance : Marc-Olivier Méhu




SOURCES & CREDITS :

   NOAA